createdAt,value
2017-10-05T00:02:02.487Z,80.48
2017-10-05T00:04:31.571Z,81.20
2017-10-05T00:07:00.618Z,81.15
2017-10-05T00:09:29.658Z,81.49
2017-10-05T00:11:58.855Z,81.72
2017-10-05T00:14:28.043Z,81.23
2017-10-05T00:16:57.075Z,81.22
2017-10-05T00:19:26.110Z,82.25
2017-10-05T00:21:55.209Z,82.47
2017-10-05T00:24:24.283Z,82.43
2017-10-05T00:26:53.316Z,82.92
2017-10-05T00:29:22.364Z,82.98
2017-10-05T00:31:51.423Z,83.26
2017-10-05T00:34:20.450Z,82.90
2017-10-05T00:36:49.494Z,82.84
2017-10-05T00:39:18.541Z,83.15
2017-10-05T00:41:47.584Z,83.52
2017-10-05T00:44:16.643Z,84.40
2017-10-05T00:46:45.674Z,84.13
2017-10-05T00:49:14.716Z,84.25
2017-10-05T00:51:44.759Z,84.28
2017-10-05T00:54:13.823Z,84.66
2017-10-05T00:56:42.866Z,84.48
2017-10-05T00:59:11.926Z,84.65
2017-10-05T01:01:42.014Z,84.71
2017-10-05T01:04:11.044Z,84.63
2017-10-05T01:06:40.110Z,84.88
2017-10-05T01:09:09.130Z,83.97
2017-10-05T01:11:38.242Z,84.19
2017-10-05T01:14:07.294Z,84.02
2017-10-05T01:16:36.326Z,84.95
2017-10-05T01:19:05.374Z,85.02
2017-10-05T01:21:34.406Z,84.60
2017-10-05T01:24:03.450Z,84.07
2017-10-05T01:26:32.514Z,84.18
2017-10-05T01:29:01.577Z,84.47
2017-10-05T01:31:31.415Z,84.47
2017-10-05T01:34:00.480Z,83.79
2017-10-05T01:36:29.514Z,84.30
2017-10-05T01:38:58.556Z,85.00
2017-10-05T01:41:27.602Z,84.96
2017-10-05T01:43:56.670Z,85.30
2017-10-05T01:46:25.743Z,85.10
2017-10-05T01:48:54.774Z,85.02
2017-10-05T01:51:23.834Z,85.07
2017-10-05T01:53:52.871Z,84.84
2017-10-05T01:56:21.907Z,84.55
2017-10-05T01:58:50.969Z,84.60
2017-10-05T02:01:20.030Z,84.36
2017-10-05T02:03:49.070Z,84.38
2017-10-05T02:06:18.130Z,84.86
2017-10-05T02:08:47.151Z,84.89
2017-10-05T02:11:16.203Z,84.96
2017-10-05T02:13:45.284Z,84.98
2017-10-05T02:16:14.450Z,85.03
2017-10-05T02:18:43.486Z,85.22
2017-10-05T02:21:12.536Z,84.69
2017-10-05T02:23:41.591Z,84.74
2017-10-05T02:26:10.623Z,84.66
2017-10-05T02:28:39.665Z,84.83
2017-10-05T02:31:08.719Z,84.59
2017-10-05T02:33:37.766Z,84.61
2017-10-05T02:36:07.717Z,84.98
2017-10-05T02:38:36.760Z,85.65
2017-10-05T02:41:05.803Z,84.94
2017-10-05T02:43:34.865Z,84.77
2017-10-05T02:46:03.908Z,85.22
2017-10-05T02:48:32.991Z,85.41
2017-10-05T02:51:02.037Z,84.91
2017-10-05T02:53:31.082Z,85.33
2017-10-05T02:56:00.129Z,85.30
2017-10-05T02:58:29.166Z,85.70
2017-10-05T03:00:58.214Z,85.82
2017-10-05T03:03:27.353Z,85.43
2017-10-05T03:05:56.406Z,85.00
2017-10-05T03:08:25.482Z,85.02
2017-10-05T03:10:54.539Z,85.14
2017-10-05T03:13:23.603Z,84.94
2017-10-05T03:15:52.634Z,85.73
2017-10-05T03:18:21.694Z,85.82
2017-10-05T03:20:50.729Z,86.05
2017-10-05T03:23:19.779Z,85.88
2017-10-05T03:25:48.820Z,86.25
2017-10-05T03:28:17.858Z,85.85
2017-10-05T03:30:46.902Z,85.79
2017-10-05T03:33:15.942Z,85.79
2017-10-05T03:35:45.143Z,84.86
2017-10-05T03:38:14.207Z,84.12
2017-10-05T03:40:43.243Z,83.60
2017-10-05T03:43:12.316Z,83.80
2017-10-05T03:45:41.362Z,83.88
2017-10-05T03:48:10.524Z,82.77
2017-10-05T03:50:40.552Z,82.20
2017-10-05T03:53:09.619Z,81.55
2017-10-05T03:55:38.700Z,81.75
2017-10-05T03:58:07.749Z,81.59
2017-10-05T04:00:36.778Z,80.32
2017-10-05T04:03:05.827Z,80.16
2017-10-05T04:05:34.870Z,79.52
2017-10-05T04:08:03.922Z,79.37
2017-10-05T04:10:32.950Z,79.15
2017-10-05T04:13:01.999Z,78.32
2017-10-05T04:15:31.046Z,78.37
2017-10-05T04:18:00.095Z,77.37
2017-10-05T04:20:29.163Z,76.85
2017-10-05T04:22:58.202Z,75.74
2017-10-05T04:25:27.250Z,75.83
2017-10-05T04:27:56.299Z,76.01
2017-10-05T04:30:25.341Z,75.40
2017-10-05T04:32:54.383Z,74.53
2017-10-05T04:35:23.435Z,74.49
2017-10-05T04:37:52.512Z,74.16
2017-10-05T04:40:21.558Z,74.27
2017-10-05T04:42:50.582Z,73.12
2017-10-05T04:45:19.631Z,72.52
2017-10-05T04:47:49.484Z,72.23
2017-10-05T04:50:24.308Z,71.18
2017-10-05T04:52:58.746Z,71.67
2017-10-05T04:55:29.364Z,72.39
2017-10-05T04:57:58.999Z,71.72
2017-10-05T05:00:28.310Z,71.73
2017-10-05T05:02:57.357Z,71.83
2017-10-05T05:05:27.190Z,72.09
2017-10-05T05:07:56.249Z,72.07
2017-10-05T05:10:25.298Z,72.90
2017-10-05T05:12:54.370Z,72.61
2017-10-05T05:15:23.419Z,72.90
2017-10-05T05:17:52.477Z,72.86
2017-10-05T05:20:23.506Z,72.88
2017-10-05T05:22:52.574Z,73.03
2017-10-05T05:25:21.616Z,72.55
2017-10-05T05:27:50.681Z,72.42
2017-10-05T05:30:19.732Z,72.52
2017-10-05T05:32:48.766Z,72.80
2017-10-05T05:35:17.878Z,72.71
2017-10-05T05:37:46.915Z,72.92
2017-10-05T05:40:15.951Z,73.69
2017-10-05T05:42:44.998Z,73.62
2017-10-05T05:45:14.044Z,73.16
2017-10-05T05:47:43.172Z,73.36
2017-10-05T05:50:12.214Z,73.37
2017-10-05T05:52:41.265Z,73.95
2017-10-05T05:55:10.353Z,73.70
2017-10-05T05:57:39.391Z,74.39
2017-10-05T06:00:08.459Z,74.30
2017-10-05T06:02:37.513Z,74.27
2017-10-05T06:05:06.608Z,74.15
2017-10-05T06:07:35.694Z,74.32
2017-10-05T06:10:04.827Z,74.86
2017-10-05T06:12:33.848Z,74.58
2017-10-05T06:15:02.904Z,74.35
2017-10-05T06:17:31.978Z,74.48
2017-10-05T06:20:01.018Z,73.52
2017-10-05T06:22:30.075Z,73.99
2017-10-05T06:24:59.127Z,73.67
2017-10-05T06:27:28.180Z,73.60
2017-10-05T06:29:57.212Z,74.48
2017-10-05T06:32:26.269Z,73.31
2017-10-05T06:34:55.314Z,73.70
2017-10-05T06:37:24.473Z,72.74
2017-10-05T06:39:53.540Z,72.43
2017-10-05T06:42:22.570Z,73.00
2017-10-05T06:44:51.647Z,72.82
2017-10-05T06:47:20.689Z,71.17
2017-10-05T06:49:49.728Z,70.77
2017-10-05T06:52:18.771Z,70.83
2017-10-05T06:54:55.570Z,70.92
2017-10-05T06:57:36.317Z,71.52
2017-10-05T07:00:13.134Z,70.53
2017-10-05T07:02:49.640Z,71.42
2017-10-05T07:05:26.401Z,70.80
2017-10-05T07:08:03.075Z,69.96
2017-10-05T07:10:38.667Z,68.62
2017-10-05T07:13:14.002Z,69.02
2017-10-05T07:15:50.239Z,69.01
2017-10-05T07:18:28.115Z,69.11
2017-10-05T07:21:05.893Z,69.50
2017-10-05T07:23:42.110Z,68.27
2017-10-05T07:26:17.938Z,68.27
2017-10-05T07:28:53.787Z,67.23
2017-10-05T07:31:28.531Z,67.04
2017-10-05T07:34:04.194Z,64.87
2017-10-05T07:36:43.002Z,65.45
2017-10-05T07:39:20.937Z,61.45
2017-10-05T07:41:55.857Z,61.49
2017-10-05T07:47:12.883Z,60.11
2017-10-05T07:49:43.070Z,61.49
2017-10-05T07:52:12.155Z,58.04
2017-10-05T07:54:41.190Z,58.33
2017-10-05T07:57:10.295Z,57.29
2017-10-05T07:59:39.346Z,58.01
2017-10-05T08:02:08.396Z,56.80
2017-10-05T08:04:37.444Z,54.38
2017-10-05T08:07:06.491Z,56.25
2017-10-05T08:09:35.563Z,55.42
2017-10-05T08:12:04.607Z,54.71
2017-10-05T08:14:33.646Z,54.97
2017-10-05T08:17:02.702Z,55.64
2017-10-05T08:19:31.742Z,54.08
2017-10-05T08:22:00.783Z,53.41
2017-10-05T08:24:29.841Z,55.06
2017-10-05T08:26:58.878Z,53.54
2017-10-05T08:29:27.996Z,54.71
2017-10-05T08:31:57.034Z,53.02
2017-10-05T08:34:26.078Z,50.85
2017-10-05T08:36:55.153Z,51.26
2017-10-05T08:39:24.211Z,51.65
2017-10-05T08:41:53.239Z,49.63
2017-10-05T08:44:22.296Z,51.65
2017-10-05T08:46:51.322Z,46.80
2017-10-05T08:49:20.381Z,46.33
2017-10-05T08:51:49.430Z,45.68
2017-10-05T08:54:18.466Z,43.65
2017-10-05T08:56:47.506Z,43.54
2017-10-05T08:59:16.586Z,43.03
2017-10-05T09:01:45.651Z,39.47
2017-10-05T09:04:14.679Z,37.02
2017-10-05T09:06:43.718Z,38.94
2017-10-05T09:09:12.779Z,36.51
2017-10-05T09:11:41.907Z,36.18
2017-10-05T09:14:10.935Z,38.30
2017-10-05T09:16:39.966Z,35.29
2017-10-05T09:19:09.018Z,34.69
2017-10-05T09:21:38.098Z,37.25
2017-10-05T09:24:07.146Z,35.64
2017-10-05T09:26:36.189Z,33.16
2017-10-05T09:29:05.240Z,32.30
2017-10-05T09:31:34.285Z,32.22
2017-10-05T09:34:03.342Z,32.18
2017-10-05T09:36:32.398Z,32.20
2017-10-05T09:39:01.476Z,33.88
2017-10-05T09:41:30.532Z,33.06
2017-10-05T09:43:59.584Z,32.57
2017-10-05T09:46:28.630Z,34.17
2017-10-05T09:48:57.678Z,32.24
2017-10-05T09:51:26.732Z,33.32
2017-10-05T09:53:55.775Z,31.93
2017-10-05T09:56:24.806Z,32.23
2017-10-05T09:58:53.988Z,29.35
2017-10-05T10:01:23.035Z,31.23
2017-10-05T10:03:52.083Z,31.38
2017-10-05T10:06:21.139Z,29.78
2017-10-05T10:08:50.183Z,28.68
2017-10-05T10:11:19.227Z,27.73
2017-10-05T10:13:48.267Z,27.75
2017-10-05T10:16:17.313Z,28.64
2017-10-05T10:18:46.363Z,28.87
2017-10-05T10:21:15.412Z,29.22
2017-10-05T10:23:44.455Z,27.20
2017-10-05T10:26:13.515Z,26.87
2017-10-05T10:28:42.614Z,25.78
2017-10-05T10:31:11.697Z,26.73
2017-10-05T10:33:40.730Z,25.84
2017-10-05T10:36:09.770Z,25.74
2017-10-05T10:38:38.819Z,25.51
2017-10-05T10:41:07.869Z,25.12
2017-10-05T10:43:36.938Z,25.82
2017-10-05T10:46:05.973Z,24.96
2017-10-05T10:48:35.025Z,25.00
2017-10-05T10:51:04.063Z,24.19
2017-10-05T10:53:33.102Z,23.15
2017-10-05T10:56:02.165Z,24.12
2017-10-05T10:58:31.236Z,23.06
2017-10-05T11:01:00.298Z,23.36
2017-10-05T11:03:29.330Z,23.44
2017-10-05T11:05:58.391Z,23.56
2017-10-05T11:08:27.474Z,24.26
2017-10-05T11:10:56.531Z,23.18
2017-10-05T11:13:25.586Z,23.37
2017-10-05T11:15:54.656Z,24.57
2017-10-05T11:18:23.822Z,23.76
2017-10-05T11:20:52.902Z,23.23
2017-10-05T11:23:21.942Z,23.32
2017-10-05T11:25:51.003Z,22.65
2017-10-05T11:28:20.052Z,23.56
2017-10-05T11:30:49.095Z,22.94
2017-10-05T11:33:18.171Z,23.66
2017-10-05T11:35:47.206Z,21.86
2017-10-05T11:38:16.239Z,22.68
2017-10-05T11:40:45.305Z,22.67
2017-10-05T11:43:14.330Z,24.54
2017-10-05T11:45:43.383Z,21.75
2017-10-05T11:48:12.426Z,22.82
2017-10-05T11:50:41.479Z,23.00
2017-10-05T11:53:10.581Z,23.31
2017-10-05T11:55:39.634Z,22.02
2017-10-05T11:58:08.682Z,22.14
2017-10-05T12:00:38.747Z,21.61
2017-10-05T12:03:08.075Z,23.56
2017-10-05T12:05:37.123Z,22.38
2017-10-05T12:08:06.171Z,22.29
2017-10-05T12:10:35.259Z,22.33
2017-10-05T12:13:04.290Z,23.09
2017-10-05T12:15:33.328Z,22.35
2017-10-05T12:18:02.382Z,22.84
2017-10-05T12:20:31.500Z,23.97
2017-10-05T12:23:00.636Z,21.64
2017-10-05T12:25:29.683Z,24.08
2017-10-05T12:27:58.735Z,21.82
2017-10-05T12:30:27.834Z,20.94
2017-10-05T12:32:56.916Z,21.77
2017-10-05T12:35:25.987Z,24.08
2017-10-05T12:37:55.037Z,25.02
2017-10-05T12:40:24.177Z,24.51
2017-10-05T12:42:53.216Z,23.69
2017-10-05T12:45:22.242Z,23.79
2017-10-05T12:47:51.283Z,23.96
2017-10-05T12:50:20.334Z,24.57
2017-10-05T12:52:49.412Z,24.54
2017-10-05T12:55:18.458Z,25.33
2017-10-05T12:57:47.577Z,25.47
2017-10-05T13:00:16.626Z,23.14
2017-10-05T13:02:45.674Z,23.74
2017-10-05T13:05:14.722Z,23.02
2017-10-05T13:07:43.788Z,22.42
2017-10-05T13:10:12.877Z,22.17
2017-10-05T13:12:41.922Z,21.69
2017-10-05T13:15:11.013Z,22.72
2017-10-05T13:17:40.062Z,22.58
2017-10-05T13:20:10.287Z,24.65
2017-10-05T13:22:39.323Z,25.04
2017-10-05T13:25:08.371Z,23.76
2017-10-05T13:27:37.610Z,24.14
2017-10-05T13:30:06.714Z,23.57
2017-10-05T13:32:35.763Z,24.34
2017-10-05T13:35:04.793Z,24.83
2017-10-05T13:37:33.848Z,24.62
2017-10-05T13:40:03.962Z,24.13
2017-10-05T13:42:33.036Z,24.48
2017-10-05T13:45:02.062Z,24.66
2017-10-05T13:47:31.117Z,26.31
2017-10-05T13:50:00.154Z,26.13
2017-10-05T13:52:29.234Z,24.76
2017-10-05T13:54:58.302Z,26.38
2017-10-05T13:57:27.355Z,28.43
2017-10-05T13:59:56.398Z,26.39
2017-10-05T14:02:25.690Z,26.35
2017-10-05T14:04:54.744Z,27.04
2017-10-05T14:07:24.385Z,26.25
2017-10-05T14:09:53.442Z,27.80
2017-10-05T14:12:22.498Z,26.05
2017-10-05T14:14:51.566Z,27.06
2017-10-05T14:17:21.812Z,25.41
2017-10-05T14:19:50.859Z,26.33
2017-10-05T14:22:19.902Z,26.93
2017-10-05T14:24:48.962Z,26.91
2017-10-05T14:27:18.002Z,27.15
2017-10-05T14:29:47.050Z,27.96
2017-10-05T14:32:16.087Z,26.81
2017-10-05T14:34:45.139Z,28.06
2017-10-05T14:37:14.186Z,26.76
2017-10-05T14:39:44.298Z,27.22
2017-10-05T14:42:13.313Z,27.72
2017-10-05T14:44:42.393Z,28.30
2017-10-05T14:47:11.439Z,28.00
2017-10-05T14:49:40.487Z,28.47
2017-10-05T14:52:09.550Z,27.91
2017-10-05T14:54:38.590Z,27.90
2017-10-05T14:57:07.676Z,29.18
2017-10-05T14:59:36.750Z,29.63
2017-10-05T15:02:05.771Z,29.77
2017-10-05T15:04:34.810Z,29.94
2017-10-05T15:07:03.860Z,31.43
2017-10-05T15:09:32.911Z,32.60
2017-10-05T15:12:01.967Z,32.57
2017-10-05T15:14:31.145Z,32.40
2017-10-05T15:17:00.240Z,33.22
2017-10-05T15:19:29.274Z,33.29
2017-10-05T15:21:58.332Z,33.95
2017-10-05T15:24:27.421Z,34.25
2017-10-05T15:26:56.494Z,34.31
2017-10-05T15:29:25.553Z,34.82
2017-10-05T15:31:54.597Z,34.52
2017-10-05T15:34:23.655Z,35.07
2017-10-05T15:36:52.729Z,34.93
2017-10-05T15:39:22.447Z,35.80
2017-10-05T15:41:51.510Z,35.78
2017-10-05T15:44:20.551Z,35.45
2017-10-05T15:46:49.607Z,35.93
2017-10-05T15:49:18.692Z,37.23
2017-10-05T15:51:47.771Z,37.58
2017-10-05T15:54:16.797Z,38.58
2017-10-05T15:56:45.846Z,40.80
2017-10-05T15:59:16.660Z,41.57
2017-10-05T16:01:45.694Z,43.73
2017-10-05T16:04:14.941Z,40.84
2017-10-05T16:06:44.334Z,43.54
2017-10-05T16:09:15.543Z,48.45
2017-10-05T16:11:45.721Z,47.68
2017-10-05T16:14:14.780Z,47.17
2017-10-05T16:16:43.835Z,47.20
2017-10-05T16:19:12.892Z,46.22
2017-10-05T16:21:41.952Z,45.51
2017-10-05T16:24:11.003Z,44.95
2017-10-05T16:26:40.046Z,44.23
2017-10-05T16:29:09.093Z,44.14
2017-10-05T16:31:38.144Z,44.10
2017-10-05T16:34:07.182Z,44.96
2017-10-05T16:36:36.255Z,44.65
2017-10-05T16:39:05.304Z,45.07
2017-10-05T16:41:34.490Z,44.67
2017-10-05T16:44:03.552Z,44.61
2017-10-05T16:46:32.589Z,45.18
2017-10-05T16:49:01.659Z,45.08
2017-10-05T16:51:30.737Z,45.61
2017-10-05T16:53:59.766Z,45.59
2017-10-05T16:56:28.818Z,45.92
2017-10-05T16:58:57.929Z,46.19
2017-10-05T17:01:27.001Z,45.95
2017-10-05T17:03:56.050Z,47.17
2017-10-05T17:06:25.404Z,46.90
2017-10-05T17:08:54.923Z,48.02
2017-10-05T17:11:24.018Z,47.93
2017-10-05T17:13:53.435Z,49.47
2017-10-05T17:16:22.487Z,49.40
2017-10-05T17:18:51.710Z,49.50
2017-10-05T17:21:20.905Z,48.71
2017-10-05T17:23:49.942Z,49.34
2017-10-05T17:26:19.094Z,49.85
2017-10-05T17:28:48.125Z,48.64
2017-10-05T17:31:17.543Z,48.92
2017-10-05T17:33:47.494Z,48.09
2017-10-05T17:36:16.542Z,48.10
2017-10-05T17:38:45.583Z,48.11
2017-10-05T17:41:14.629Z,48.06
2017-10-05T17:43:44.254Z,48.57
2017-10-05T17:46:13.331Z,49.49
2017-10-05T17:48:42.390Z,50.01
2017-10-05T17:51:11.465Z,50.59
2017-10-05T17:53:40.529Z,51.98
2017-10-05T17:56:09.654Z,53.18
2017-10-05T17:58:38.679Z,57.91
2017-10-05T18:01:07.776Z,61.79
2017-10-05T18:03:36.827Z,64.40
2017-10-05T18:06:05.981Z,66.47
2017-10-05T18:08:35.194Z,70.76
2017-10-05T18:11:04.293Z,78.37
2017-10-05T18:13:33.393Z,82.09
2017-10-05T18:16:02.434Z,85.94
2017-10-05T18:18:31.487Z,87.25
2017-10-05T18:21:00.538Z,89.18
2017-10-05T18:23:32.689Z,90.74
2017-10-05T18:26:01.795Z,90.70
2017-10-05T18:28:30.963Z,91.58
2017-10-05T18:31:00.247Z,92.59
2017-10-05T18:33:29.449Z,92.47
2017-10-05T18:35:58.538Z,94.33
2017-10-05T18:38:27.712Z,94.41
2017-10-05T18:40:57.020Z,95.10
2017-10-05T18:43:26.404Z,94.63
2017-10-05T18:45:55.451Z,95.89
2017-10-05T18:48:24.595Z,96.04
2017-10-05T18:50:53.635Z,96.16
2017-10-05T18:53:22.680Z,96.46
2017-10-05T18:55:51.729Z,96.50
2017-10-05T18:58:20.882Z,96.51
2017-10-05T19:00:49.954Z,96.93
2017-10-05T19:03:18.998Z,96.81
2017-10-05T19:05:48.069Z,97.09
2017-10-05T19:08:17.274Z,97.65
2017-10-05T19:10:46.343Z,97.50
2017-10-05T19:13:15.391Z,97.63
2017-10-05T19:15:44.482Z,97.74
2017-10-05T19:18:13.591Z,98.16
2017-10-05T19:20:42.675Z,97.40
2017-10-05T19:23:12.552Z,96.65
2017-10-05T19:25:41.743Z,98.01
2017-10-05T19:28:10.880Z,90.91
2017-10-05T19:30:39.961Z,91.26
2017-10-05T19:33:09.022Z,93.17
2017-10-05T19:35:38.072Z,94.47
2017-10-05T19:38:07.116Z,95.49
2017-10-05T19:40:41.846Z,95.30
2017-10-05T19:43:16.956Z,96.36
2017-10-05T19:45:51.212Z,96.50
2017-10-05T19:48:20.763Z,96.04
2017-10-05T19:50:49.800Z,96.62
2017-10-05T19:53:18.947Z,96.73
2017-10-05T19:55:48.097Z,96.89
2017-10-05T19:58:17.172Z,97.63
2017-10-05T20:00:46.204Z,96.68
2017-10-05T20:03:15.247Z,96.77
2017-10-05T20:05:44.371Z,96.59
2017-10-05T20:08:13.475Z,97.02
2017-10-05T20:10:42.523Z,95.89
2017-10-05T20:13:12.162Z,96.87
2017-10-05T20:15:41.196Z,96.83
2017-10-05T20:18:12.667Z,97.24
2017-10-05T20:20:47.212Z,97.44
2017-10-05T20:26:24.780Z,97.72
2017-10-05T20:29:00.851Z,97.83
2017-10-05T20:34:24.477Z,98.32
2017-10-05T20:36:53.516Z,97.75
2017-10-05T20:39:22.561Z,98.49
2017-10-05T20:41:52.522Z,98.73
2017-10-05T20:44:21.603Z,99.33
2017-10-05T20:46:50.705Z,99.17
2017-10-05T20:49:19.752Z,99.36
2017-10-05T20:51:48.787Z,99.17
2017-10-05T20:54:19.691Z,99.32
2017-10-05T20:56:48.735Z,99.08
2017-10-05T20:59:17.985Z,99.37
2017-10-05T21:01:47.136Z,99.61
2017-10-05T21:04:17.159Z,100.00
2017-10-05T21:06:46.180Z,100.00
2017-10-05T21:09:16.778Z,100.00
2017-10-05T21:11:47.903Z,100.00
2017-10-05T21:14:17.689Z,100.00
2017-10-05T21:16:46.770Z,99.53
2017-10-05T21:19:15.851Z,100.00
2017-10-05T21:21:44.895Z,99.61
2017-10-05T21:24:13.933Z,100.00
2017-10-05T21:26:43.521Z,100.00
2017-10-05T21:29:13.118Z,100.00
2017-10-05T21:31:42.887Z,100.00
2017-10-05T21:34:12.490Z,100.00
2017-10-05T21:36:43.075Z,100.00
2017-10-05T21:39:12.115Z,100.00
2017-10-05T21:41:41.183Z,100.00
2017-10-05T21:44:10.279Z,100.00
2017-10-05T21:46:39.313Z,100.00
2017-10-05T21:49:08.353Z,100.00
2017-10-05T21:51:37.390Z,100.00
2017-10-05T21:54:06.432Z,100.00
2017-10-05T21:56:41.308Z,100.00
2017-10-05T21:59:16.758Z,100.00
2017-10-05T22:01:46.358Z,100.00
2017-10-05T22:04:15.402Z,100.00
2017-10-05T22:06:44.466Z,100.00
2017-10-05T22:09:13.499Z,99.70
2017-10-05T22:11:42.555Z,99.68
2017-10-05T22:14:11.627Z,99.80
2017-10-05T22:16:40.661Z,99.54
2017-10-05T22:19:09.701Z,99.16
2017-10-05T22:21:38.742Z,99.38
2017-10-05T22:24:07.825Z,99.49
2017-10-05T22:26:36.863Z,99.33
2017-10-05T22:29:05.899Z,99.08
2017-10-05T22:31:34.971Z,98.97
2017-10-05T22:34:03.991Z,99.03
2017-10-05T22:36:33.031Z,99.26
2017-10-05T22:39:02.283Z,99.57
2017-10-05T22:41:31.342Z,100.00
2017-10-05T22:44:00.382Z,100.00
2017-10-05T22:46:29.432Z,100.00
2017-10-05T22:48:58.483Z,100.00
2017-10-05T22:51:27.532Z,99.35
2017-10-05T22:53:56.585Z,100.00
2017-10-05T22:56:25.926Z,100.00
2017-10-05T22:58:54.967Z,100.00
2017-10-05T23:01:24.007Z,100.00
2017-10-05T23:03:53.093Z,100.00
2017-10-05T23:06:22.126Z,100.00
2017-10-05T23:08:51.379Z,100.00
2017-10-05T23:11:21.402Z,100.00
2017-10-05T23:13:50.462Z,100.00
2017-10-05T23:16:19.500Z,100.00
2017-10-05T23:18:48.547Z,100.00
2017-10-05T23:21:17.623Z,100.00
2017-10-05T23:23:46.693Z,100.00
2017-10-05T23:26:15.722Z,100.00
2017-10-05T23:28:44.763Z,100.00
2017-10-05T23:31:13.803Z,100.00
2017-10-05T23:33:42.866Z,100.00
2017-10-05T23:36:11.906Z,100.00
2017-10-05T23:38:40.939Z,100.00
2017-10-05T23:41:09.992Z,100.00
2017-10-05T23:43:39.036Z,100.00
2017-10-05T23:46:08.109Z,100.00
2017-10-05T23:48:37.160Z,100.00
2017-10-05T23:51:06.191Z,100.00
2017-10-05T23:53:35.243Z,100.00
2017-10-05T23:56:04.277Z,100.00
2017-10-05T23:58:33.365Z,100.00
